Time;durP1;ratioP1;P1;durP2;ratioP2;P2;SDS_P1;SDS_P2;PMS_P1;PMS_P2;Temp;Humidity;BMP_temperature;BMP_pressure;BME280_temperature;BME280_humidity;BME280_pressure;Samples;Min_cycle;Max_cycle;Signal;HPM_P1;HPM_P2
2022/12/25 00:00:09;;;;;;;10.32;5.82;;;;;;;;;;5154856;27;20031;-68
2022/12/25 00:02:34;;;;;;;10.10;6.03;;;;;;;;;;5154673;27;20042;-68
2022/12/25 00:05:00;;;;;;;9.60;5.78;;;;;;;;;;5154609;27;20029;-68
2022/12/25 00:07:25;;;;;;;9.68;5.68;;;;;;;;;;5154524;27;20030;-69
2022/12/25 00:09:51;;;;;;;10.25;5.95;;;;;;;;;;5154845;27;20038;-68
2022/12/25 00:12:18;;;;;;;8.50;4.78;;;;;;;;;;5155179;27;20500;-68
2022/12/25 00:14:43;;;;;;;10.00;4.40;;;;;;;;;;5154812;27;20022;-69
2022/12/25 00:17:09;;;;;;;7.18;3.70;;;;;;;;;;5154419;27;20053;-68
2022/12/25 00:19:34;;;;;;;9.75;4.03;;;;;;;;;;5154309;27;20413;-69
2022/12/25 00:22:00;;;;;;;8.68;4.10;;;;;;;;;;5153868;27;20031;-68
2022/12/25 00:24:25;;;;;;;8.13;4.22;;;;;;;;;;5154281;27;20091;-69
2022/12/25 00:26:50;;;;;;;7.15;3.70;;;;;;;;;;5154543;27;20033;-70
2022/12/25 00:29:16;;;;;;;7.90;3.65;;;;;;;;;;5154756;27;20026;-70
2022/12/25 00:31:41;;;;;;;8.93;3.50;;;;;;;;;;5154513;27;20018;-69
2022/12/25 00:34:06;;;;;;;7.13;3.70;;;;;;;;;;5154140;27;20118;-70
2022/12/25 00:36:32;;;;;;;6.43;3.20;;;;;;;;;;5154007;27;20030;-71
2022/12/25 00:38:57;;;;;;;6.32;3.40;;;;;;;;;;5153761;27;20057;-69
2022/12/25 00:44:10;;;;;;;6.45;3.20;;;;;;;;;;5153974;27;20135;-70
2022/12/25 00:46:36;;;;;;;6.50;3.35;;;;;;;;;;5154063;27;20094;-70
2022/12/25 00:49:01;;;;;;;6.32;3.05;;;;;;;;;;5153775;27;20107;-69
2022/12/25 00:51:27;;;;;;;5.18;3.20;;;;;;;;;;5154376;27;20055;-69
2022/12/25 00:53:52;;;;;;;8.68;3.50;;;;;;;;;;5153816;27;20022;-70
2022/12/25 00:56:18;;;;;;;6.38;3.05;;;;;;;;;;5153562;27;20040;-69
2022/12/25 00:58:43;;;;;;;6.85;3.38;;;;;;;;;;5153538;27;20026;-69
2022/12/25 01:01:10;;;;;;;6.25;3.17;;;;;;;;;;5153737;27;20059;-70
2022/12/25 01:03:35;;;;;;;5.97;3.08;;;;;;;;;;5153398;27;20038;-70
2022/12/25 01:06:04;;;;;;;6.45;2.97;;;;;;;;;;5153711;27;20027;-69
2022/12/25 01:08:32;;;;;;;5.32;2.90;;;;;;;;;;5153274;27;20023;-69
2022/12/25 01:11:04;;;;;;;6.93;2.63;;;;;;;;;;5153515;27;20026;-70
2022/12/25 01:13:30;;;;;;;4.95;2.53;;;;;;;;;;5153262;27;20046;-70
2022/12/25 01:15:55;;;;;;;4.50;2.50;;;;;;;;;;5153257;27;20023;-71
2022/12/25 01:18:23;;;;;;;6.68;3.17;;;;;;;;;;5153240;27;20034;-69
2022/12/25 01:20:48;;;;;;;7.30;2.83;;;;;;;;;;5151939;27;20026;-70
2022/12/25 01:23:14;;;;;;;5.78;2.80;;;;;;;;;;5153323;27;20531;-70
2022/12/25 01:25:39;;;;;;;6.70;3.33;;;;;;;;;;5153262;27;20102;-70
2022/12/25 01:28:05;;;;;;;7.20;3.22;;;;;;;;;;5152945;27;20525;-71
2022/12/25 01:30:31;;;;;;;7.70;3.00;;;;;;;;;;5152909;27;20022;-70
2022/12/25 01:32:56;;;;;;;7.13;3.10;;;;;;;;;;5150483;27;20031;-69
2022/12/25 01:35:22;;;;;;;7.63;3.20;;;;;;;;;;5152903;27;20141;-70
2022/12/25 01:37:49;;;;;;;5.82;3.00;;;;;;;;;;5152952;27;20026;-69
2022/12/25 01:40:14;;;;;;;4.15;2.70;;;;;;;;;;5152922;27;20066;-69
2022/12/25 01:42:40;;;;;;;7.18;3.35;;;;;;;;;;5152522;27;20081;-69
2022/12/25 01:45:40;;;;;;;6.07;2.70;;;;;;;;;;5152756;27;20640;-69
2022/12/25 01:48:11;;;;;;;5.88;2.90;;;;;;;;;;5138108;27;20038;-70
2022/12/25 01:50:38;;;;;;;5.88;2.80;;;;;;;;;;5152664;27;20054;-69
2022/12/25 01:53:05;;;;;;;5.43;2.90;;;;;;;;;;5151161;27;20435;-70
2022/12/25 01:55:32;;;;;;;5.55;2.97;;;;;;;;;;5152618;27;20023;-70
2022/12/25 01:57:58;;;;;;;5.32;2.55;;;;;;;;;;5151086;27;20411;-70
2022/12/25 02:00:23;;;;;;;5.15;2.30;;;;;;;;;;5152605;27;20036;-69
2022/12/25 02:02:49;;;;;;;4.93;2.58;;;;;;;;;;5152220;27;20409;-70
2022/12/25 02:05:26;;;;;;;4.82;2.47;;;;;;;;;;5152428;27;20038;-70
2022/12/25 02:07:52;;;;;;;5.30;2.20;;;;;;;;;;5152048;27;20022;-70
2022/12/25 02:10:18;;;;;;;5.63;2.40;;;;;;;;;;5150956;27;20034;-70
2022/12/25 02:12:44;;;;;;;5.07;2.30;;;;;;;;;;5152496;27;20032;-70
2022/12/25 02:15:17;;;;;;;3.95;2.10;;;;;;;;;;5152311;27;20027;-70
2022/12/25 02:18:20;;;;;;;3.97;1.80;;;;;;;;;;5151996;27;20033;-69
2022/12/25 02:21:16;;;;;;;4.38;2.00;;;;;;;;;;5152189;27;20087;-70
2022/12/25 02:24:19;;;;;;;4.45;2.17;;;;;;;;;;5152218;27;20062;-69
2022/12/25 02:27:34;;;;;;;4.07;2.10;;;;;;;;;;5152048;27;20026;-71
2022/12/25 02:30:08;;;;;;;3.58;1.90;;;;;;;;;;5108266;28;20094;-70
2022/12/25 02:32:45;;;;;;;3.63;1.95;;;;;;;;;;5108090;28;20032;-71
2022/12/25 02:35:19;;;;;;;3.45;2.10;;;;;;;;;;5137874;27;20109;-71
2022/12/25 02:37:54;;;;;;;3.45;2.05;;;;;;;;;;5151699;27;20030;-71
2022/12/25 02:40:25;;;;;;;4.32;2.25;;;;;;;;;;5151873;27;20473;-70
2022/12/25 03:08:21;;;;;;;7.07;2.55;;;;;;;;;;5152499;27;20049;-70
2022/12/25 03:13:48;;;;;;;4.82;2.33;;;;;;;;;;5156803;27;20555;-70
2022/12/25 03:18:58;;;;;;;4.00;2.47;;;;;;;;;;5151830;27;20526;-70
2022/12/25 03:26:55;;;;;;;4.70;2.15;;;;;;;;;;5151797;27;20125;-71
2022/12/25 03:32:28;;;;;;;4.43;2.40;;;;;;;;;;5151773;27;20042;-70
2022/12/25 03:35:24;;;;;;;3.97;2.15;;;;;;;;;;5151276;27;20074;-70
2022/12/25 04:36:20;;;;;;;5.47;2.08;;;;;;;;;;5154129;27;20167;-69
2022/12/25 04:38:45;;;;;;;4.20;2.08;;;;;;;;;;5154135;27;20079;-69
2022/12/25 04:41:12;;;;;;;4.70;1.92;;;;;;;;;;5154118;27;20042;-70
2022/12/25 04:43:38;;;;;;;4.32;2.10;;;;;;;;;;5153498;27;20054;-71
2022/12/25 04:46:03;;;;;;;4.18;1.95;;;;;;;;;;5153789;27;20038;-70
2022/12/25 04:48:32;;;;;;;4.88;2.03;;;;;;;;;;5153632;27;20030;-69
2022/12/25 04:51:07;;;;;;;4.65;2.08;;;;;;;;;;5153904;27;20473;-70
2022/12/25 04:53:33;;;;;;;4.95;2.40;;;;;;;;;;5153872;27;20027;-70
2022/12/25 04:56:02;;;;;;;3.83;2.00;;;;;;;;;;5153944;27;20021;-70
2022/12/25 04:58:27;;;;;;;5.85;2.63;;;;;;;;;;5153274;27;20027;-70
2022/12/25 05:00:53;;;;;;;4.13;2.05;;;;;;;;;;5153700;27;20057;-69
2022/12/25 05:03:18;;;;;;;6.55;2.10;;;;;;;;;;5153103;27;20029;-70
2022/12/25 05:05:43;;;;;;;3.85;2.10;;;;;;;;;;5153448;27;20027;-69
2022/12/25 05:08:10;;;;;;;5.47;2.10;;;;;;;;;;5153232;27;20106;-69
2022/12/25 05:10:38;;;;;;;4.82;2.30;;;;;;;;;;5152173;27;20626;-70
2022/12/25 05:13:04;;;;;;;5.38;2.25;;;;;;;;;;5153636;27;20023;-69
2022/12/25 05:15:29;;;;;;;7.82;2.40;;;;;;;;;;5153351;27;20394;-70
2022/12/25 05:17:55;;;;;;;4.85;2.40;;;;;;;;;;5153137;27;20061;-70
2022/12/25 05:20:20;;;;;;;4.38;2.25;;;;;;;;;;5153085;27;20025;-69
2022/12/25 05:22:45;;;;;;;3.47;2.00;;;;;;;;;;5153044;27;20570;-69
2022/12/25 05:25:11;;;;;;;6.20;2.30;;;;;;;;;;5153174;27;20030;-69
2022/12/25 05:27:36;;;;;;;4.78;2.45;;;;;;;;;;5153319;27;20015;-69
2022/12/25 05:30:03;;;;;;;6.80;2.30;;;;;;;;;;5152957;27;20022;-71
2022/12/25 05:32:28;;;;;;;4.53;2.20;;;;;;;;;;5152872;27;20478;-69
2022/12/25 05:34:53;;;;;;;8.18;2.55;;;;;;;;;;5152739;27;20022;-69
2022/12/25 05:37:19;;;;;;;5.93;2.15;;;;;;;;;;5152843;27;20033;-70
2022/12/25 05:39:44;;;;;;;4.75;2.45;;;;;;;;;;5152792;27;20021;-70
2022/12/25 05:42:10;;;;;;;5.43;2.58;;;;;;;;;;5152644;27;20183;-69
2022/12/25 05:44:35;;;;;;;6.30;2.55;;;;;;;;;;5152709;27;20374;-70
2022/12/25 05:47:00;;;;;;;4.55;2.58;;;;;;;;;;5152954;27;20034;-69
2022/12/25 05:49:26;;;;;;;6.28;2.65;;;;;;;;;;5153578;27;20048;-69
2022/12/25 05:51:51;;;;;;;6.70;2.33;;;;;;;;;;5156385;27;20386;-69
2022/12/25 05:54:17;;;;;;;4.07;2.40;;;;;;;;;;5154505;27;20030;-69
2022/12/25 05:56:42;;;;;;;5.75;2.33;;;;;;;;;;5153929;27;20050;-69
2022/12/25 05:59:07;;;;;;;10.18;2.72;;;;;;;;;;5152808;27;20496;-70
2022/12/25 06:01:33;;;;;;;4.22;2.40;;;;;;;;;;5153943;27;20023;-69
2022/12/25 06:03:58;;;;;;;5.55;2.38;;;;;;;;;;5153849;27;20018;-69
2022/12/25 06:06:24;;;;;;;6.72;2.50;;;;;;;;;;5153045;27;20124;-70
2022/12/25 06:08:52;;;;;;;6.18;2.42;;;;;;;;;;5152391;27;20018;-70
2022/12/25 06:11:17;;;;;;;5.35;2.97;;;;;;;;;;5152170;27;20046;-70
2022/12/25 06:13:43;;;;;;;5.13;2.83;;;;;;;;;;5152108;27;20023;-70
2022/12/25 06:16:10;;;;;;;5.78;2.95;;;;;;;;;;5152128;27;20075;-70
2022/12/25 06:18:38;;;;;;;4.95;2.72;;;;;;;;;;5151698;27;20019;-70
2022/12/25 06:21:11;;;;;;;5.63;3.00;;;;;;;;;;5151856;27;20019;-70
2022/12/25 06:23:38;;;;;;;6.32;3.38;;;;;;;;;;5152012;27;20030;-70
2022/12/25 06:26:09;;;;;;;4.18;2.78;;;;;;;;;;5152083;27;20416;-71
2022/12/25 06:28:35;;;;;;;6.78;3.08;;;;;;;;;;5151882;27;20048;-70
2022/12/25 06:31:12;;;;;;;6.47;3.08;;;;;;;;;;5151761;27;20023;-70
2022/12/25 06:33:38;;;;;;;6.90;3.10;;;;;;;;;;5151836;27;20109;-70
2022/12/25 06:36:05;;;;;;;5.85;3.20;;;;;;;;;;5152000;27;20111;-69
2022/12/25 06:38:31;;;;;;;6.75;3.53;;;;;;;;;;5152076;27;20060;-70
2022/12/25 06:41:03;;;;;;;6.80;3.30;;;;;;;;;;5151905;27;20031;-69
2022/12/25 06:43:28;;;;;;;6.53;3.30;;;;;;;;;;5151402;27;20581;-69
2022/12/25 06:45:54;;;;;;;5.13;3.30;;;;;;;;;;5151760;27;20035;-69
2022/12/25 06:48:19;;;;;;;7.80;3.65;;;;;;;;;;5150419;27;20015;-69
2022/12/25 06:50:45;;;;;;;8.82;3.38;;;;;;;;;;5151648;27;20023;-69
2022/12/25 06:53:10;;;;;;;6.15;3.78;;;;;;;;;;5154631;27;20031;-69
2022/12/25 06:55:35;;;;;;;6.45;3.50;;;;;;;;;;5163091;27;20022;-69
2022/12/25 06:58:01;;;;;;;7.57;3.83;;;;;;;;;;5159378;27;20117;-69
2022/12/25 07:00:26;;;;;;;7.65;4.07;;;;;;;;;;5134632;27;20030;-70
2022/12/25 07:02:51;;;;;;;7.15;3.65;;;;;;;;;;5152104;27;20617;-70
2022/12/25 07:05:17;;;;;;;8.82;4.15;;;;;;;;;;5151697;27;20018;-69
2022/12/25 07:07:42;;;;;;;8.05;3.83;;;;;;;;;;5151841;27;20083;-69
2022/12/25 07:10:08;;;;;;;6.72;4.00;;;;;;;;;;5151521;27;20650;-68
2022/12/25 07:12:33;;;;;;;6.32;3.88;;;;;;;;;;5151815;27;20023;-70
2022/12/25 07:14:59;;;;;;;6.53;3.80;;;;;;;;;;5151665;27;20080;-70
2022/12/25 07:17:24;;;;;;;7.40;4.07;;;;;;;;;;5151516;27;20033;-71
2022/12/25 07:19:50;;;;;;;6.65;3.88;;;;;;;;;;5151289;27;20554;-70
2022/12/25 07:22:15;;;;;;;8.82;3.95;;;;;;;;;;5151350;27;20069;-70
2022/12/25 07:24:41;;;;;;;7.55;3.90;;;;;;;;;;5151274;27;20462;-71
2022/12/25 07:27:07;;;;;;;7.75;4.10;;;;;;;;;;5151299;27;20447;-70
2022/12/25 07:29:33;;;;;;;6.53;4.30;;;;;;;;;;5149913;27;20403;-70
2022/12/25 07:31:58;;;;;;;9.55;4.70;;;;;;;;;;5153238;27;20078;-70
2022/12/25 07:34:23;;;;;;;7.30;4.20;;;;;;;;;;5155285;27;20026;-72
2022/12/25 07:36:49;;;;;;;7.70;4.63;;;;;;;;;;5155322;27;20503;-70
2022/12/25 07:39:15;;;;;;;7.22;4.45;;;;;;;;;;5153751;27;20046;-70
2022/12/25 07:41:41;;;;;;;8.05;4.57;;;;;;;;;;5154976;27;20082;-69
2022/12/25 07:44:06;;;;;;;7.85;4.45;;;;;;;;;;5154767;27;20055;-69
2022/12/25 07:46:31;;;;;;;7.80;4.53;;;;;;;;;;5155066;27;20023;-70
2022/12/25 07:48:57;;;;;;;10.10;4.20;;;;;;;;;;5155170;27;20022;-69
2022/12/25 07:51:22;;;;;;;8.50;4.47;;;;;;;;;;5154856;27;20377;-69
2022/12/25 07:53:48;;;;;;;7.45;4.20;;;;;;;;;;5155205;27;20030;-70
2022/12/25 07:56:19;;;;;;;7.70;4.25;;;;;;;;;;5155186;27;20035;-70
2022/12/25 07:58:45;;;;;;;5.85;4.00;;;;;;;;;;5155035;27;20022;-70
2022/12/25 08:01:22;;;;;;;7.93;4.15;;;;;;;;;;5154861;27;20544;-71
2022/12/25 08:03:53;;;;;;;5.70;3.53;;;;;;;;;;5154667;27;20037;-71
2022/12/25 08:06:19;;;;;;;5.72;3.58;;;;;;;;;;5154831;27;20534;-71
2022/12/25 08:08:45;;;;;;;8.63;3.90;;;;;;;;;;5154923;27;20106;-71
2022/12/25 08:11:10;;;;;;;6.53;3.53;;;;;;;;;;5154620;27;20436;-71
2022/12/25 08:13:36;;;;;;;6.78;3.70;;;;;;;;;;5154713;27;20047;-71
2022/12/25 08:16:06;;;;;;;6.63;3.78;;;;;;;;;;5154675;27;20018;-70
2022/12/25 08:18:32;;;;;;;6.37;3.40;;;;;;;;;;5154498;27;20438;-70
2022/12/25 08:21:02;;;;;;;6.68;3.50;;;;;;;;;;5154386;27;20534;-70
2022/12/25 08:23:28;;;;;;;6.45;3.83;;;;;;;;;;5154555;27;20114;-70
2022/12/25 08:25:58;;;;;;;8.23;3.85;;;;;;;;;;5154732;27;20058;-72
2022/12/25 08:28:24;;;;;;;8.93;4.45;;;;;;;;;;5154596;27;20023;-71
2022/12/25 08:30:49;;;;;;;6.60;3.70;;;;;;;;;;5154261;27;20386;-70
2022/12/25 08:33:14;;;;;;;5.72;3.38;;;;;;;;;;5154321;27;20079;-71
2022/12/25 08:35:40;;;;;;;6.40;3.40;;;;;;;;;;5154034;27;20034;-69
2022/12/25 08:38:05;;;;;;;6.32;3.50;;;;;;;;;;5152886;27;20034;-69
2022/12/25 08:40:31;;;;;;;5.85;3.55;;;;;;;;;;5154088;27;20023;-73
2022/12/25 08:42:56;;;;;;;6.30;3.47;;;;;;;;;;5153951;27;20043;-72
2022/12/25 08:45:22;;;;;;;7.25;3.80;;;;;;;;;;5154290;27;20023;-79
2022/12/25 08:47:53;;;;;;;7.13;3.80;;;;;;;;;;5154656;27;20034;-77
2022/12/25 08:50:18;;;;;;;6.53;3.95;;;;;;;;;;5154114;27;20594;-76
2022/12/25 08:52:43;;;;;;;8.38;4.30;;;;;;;;;;5154955;27;20110;-75
2022/12/25 08:55:09;;;;;;;7.53;4.57;;;;;;;;;;5153654;27;20417;-74
2022/12/25 08:57:34;;;;;;;9.43;4.80;;;;;;;;;;5152558;27;20037;-75
2022/12/25 08:59:59;;;;;;;7.85;4.88;;;;;;;;;;5154180;27;20479;-78
2022/12/25 09:02:25;;;;;;;8.15;4.97;;;;;;;;;;5154024;27;20019;-80
2022/12/25 09:04:50;;;;;;;10.05;4.95;;;;;;;;;;5153612;27;20428;-79
2022/12/25 09:07:15;;;;;;;9.13;5.15;;;;;;;;;;5153836;27;20474;-78
2022/12/25 09:09:42;;;;;;;6.68;4.80;;;;;;;;;;5156355;27;20019;-82
2022/12/25 09:12:07;;;;;;;10.57;5.43;;;;;;;;;;5154144;27;20042;-76
2022/12/25 09:14:33;;;;;;;9.75;5.43;;;;;;;;;;5160478;27;20215;-75
2022/12/25 09:16:58;;;;;;;10.43;5.68;;;;;;;;;;5157093;27;20079;-75
2022/12/25 09:19:23;;;;;;;7.85;5.28;;;;;;;;;;5155211;27;20023;-75
2022/12/25 09:21:49;;;;;;;9.77;5.68;;;;;;;;;;5153768;27;20050;-76
2022/12/25 09:24:14;;;;;;;8.40;5.25;;;;;;;;;;5152916;27;20105;-79
2022/12/25 09:26:39;;;;;;;10.07;5.45;;;;;;;;;;5157651;27;20063;-75
2022/12/25 09:29:05;;;;;;;11.38;6.03;;;;;;;;;;5152992;27;20050;-76
2022/12/25 09:31:30;;;;;;;9.85;5.70;;;;;;;;;;5152862;27;20018;-76
2022/12/25 09:33:57;;;;;;;10.95;5.25;;;;;;;;;;5152712;27;20075;-73
2022/12/25 09:36:23;;;;;;;10.52;5.53;;;;;;;;;;5153062;27;20099;-81
2022/12/25 09:38:49;;;;;;;9.07;5.32;;;;;;;;;;5153185;27;20610;-75
2022/12/25 09:41:33;;;;;;;8.30;5.32;;;;;;;;;;5155859;27;20061;-79
2022/12/25 09:44:16;;;;;;;7.97;5.32;;;;;;;;;;5153370;27;20099;-78
2022/12/25 09:46:50;;;;;;;7.93;5.03;;;;;;;;;;5155221;27;20029;-79
2022/12/25 09:49:51;;;;;;;6.90;4.55;;;;;;;;;;5158641;27;20010;-75
2022/12/25 09:52:53;;;;;;;10.57;5.32;;;;;;;;;;5162199;27;20299;-75
2022/12/25 09:55:24;;;;;;;7.07;4.47;;;;;;;;;;5118302;27;20049;-74
2022/12/25 09:57:55;;;;;;;8.50;4.50;;;;;;;;;;5164026;27;20035;-74
2022/12/25 10:00:23;;;;;;;7.40;4.03;;;;;;;;;;5154388;27;20083;-74
2022/12/25 10:03:22;;;;;;;6.78;3.95;;;;;;;;;;5152239;27;20054;-74
2022/12/25 10:06:15;;;;;;;6.38;3.47;;;;;;;;;;5154885;27;20030;-75
2022/12/25 10:08:59;;;;;;;6.72;3.38;;;;;;;;;;5152437;27;20018;-73
2022/12/25 10:11:49;;;;;;;6.60;3.55;;;;;;;;;;5155917;27;20289;-75
2022/12/25 10:14:18;;;;;;;6.03;3.85;;;;;;;;;;5155606;27;20049;-76
2022/12/25 10:17:13;;;;;;;5.93;3.72;;;;;;;;;;5158802;27;20381;-76
2022/12/25 10:19:58;;;;;;;9.88;3.55;;;;;;;;;;5155664;27;20042;-76
2022/12/25 10:22:34;;;;;;;5.88;3.60;;;;;;;;;;5156709;27;20027;-78
2022/12/25 10:25:01;;;;;;;6.60;3.58;;;;;;;;;;5163722;27;20023;-74
2022/12/25 10:27:39;;;;;;;6.63;3.63;;;;;;;;;;5161538;27;20089;-74
2022/12/25 10:30:13;;;;;;;6.40;3.63;;;;;;;;;;5153834;27;20701;-74
2022/12/25 10:32:39;;;;;;;6.90;3.45;;;;;;;;;;5159112;27;20268;-76
2022/12/25 10:35:05;;;;;;;6.50;3.75;;;;;;;;;;5154360;27;20030;-75
2022/12/25 10:37:30;;;;;;;7.90;4.00;;;;;;;;;;5152199;27;20061;-77
2022/12/25 10:39:56;;;;;;;6.10;3.58;;;;;;;;;;5154178;27;20026;-77
2022/12/25 10:42:45;;;;;;;6.47;3.53;;;;;;;;;;5152598;27;20118;-76
2022/12/25 10:45:10;;;;;;;7.88;3.83;;;;;;;;;;5156682;27;20068;-77
2022/12/25 10:47:39;;;;;;;8.90;3.88;;;;;;;;;;5159183;27;20018;-78
2022/12/25 10:50:21;;;;;;;8.15;3.72;;;;;;;;;;5164014;27;20060;-75
2022/12/25 10:53:04;;;;;;;6.22;3.80;;;;;;;;;;5164474;27;20023;-76
2022/12/25 10:55:30;;;;;;;9.90;3.80;;;;;;;;;;5161079;27;20022;-81
2022/12/25 10:57:56;;;;;;;7.18;3.75;;;;;;;;;;5161074;27;20026;-78
2022/12/25 11:00:25;;;;;;;7.68;3.83;;;;;;;;;;5162839;27;20069;-76
2022/12/25 11:02:51;;;;;;;7.07;3.95;;;;;;;;;;5162823;27;20018;-78
2022/12/25 11:05:27;;;;;;;6.10;3.45;;;;;;;;;;5163154;27;20025;-76
2022/12/25 11:07:53;;;;;;;6.18;3.80;;;;;;;;;;5167431;27;20050;-76
2022/12/25 11:10:20;;;;;;;7.82;4.00;;;;;;;;;;5167011;27;20133;-76
2022/12/25 11:12:46;;;;;;;6.80;4.18;;;;;;;;;;5167294;27;20026;-76
2022/12/25 11:15:56;;;;;;;6.53;3.85;;;;;;;;;;5167130;27;20026;-77
2022/12/25 11:18:27;;;;;;;9.52;4.30;;;;;;;;;;5127711;27;20058;-79
2022/12/25 11:20:58;;;;;;;6.03;3.92;;;;;;;;;;5145479;27;20018;-77
2022/12/25 11:23:25;;;;;;;7.47;4.25;;;;;;;;;;5145008;27;20031;-75
2022/12/25 11:26:05;;;;;;;6.22;4.30;;;;;;;;;;5146385;27;20102;-75
2022/12/25 11:28:35;;;;;;;7.32;4.32;;;;;;;;;;5145245;27;20019;-76
2022/12/25 11:31:05;;;;;;;6.35;3.92;;;;;;;;;;5145696;27;20065;-76
2022/12/25 11:33:40;;;;;;;9.82;4.63;;;;;;;;;;5147388;27;20055;-77
2022/12/25 11:36:18;;;;;;;7.97;4.45;;;;;;;;;;5146580;27;20324;-74
2022/12/25 11:38:43;;;;;;;5.80;3.90;;;;;;;;;;5146410;27;20019;-75
2022/12/25 11:41:11;;;;;;;7.53;4.47;;;;;;;;;;5145906;27;20031;-73
2022/12/25 11:43:47;;;;;;;7.53;4.63;;;;;;;;;;5145670;27;20041;-83
2022/12/25 11:46:19;;;;;;;9.85;4.32;;;;;;;;;;5145515;27;20026;-83
2022/12/25 11:48:56;;;;;;;7.72;4.20;;;;;;;;;;5145562;27;20027;-78
2022/12/25 11:51:31;;;;;;;9.05;4.20;;;;;;;;;;5145328;27;20031;-74
2022/12/25 11:54:04;;;;;;;7.35;3.92;;;;;;;;;;5145815;27;20027;-74
2022/12/25 11:56:30;;;;;;;7.18;4.20;;;;;;;;;;5145701;27;20404;-77
2022/12/25 11:59:16;;;;;;;8.50;4.00;;;;;;;;;;5145715;27;20030;-76
2022/12/25 12:02:17;;;;;;;8.38;4.30;;;;;;;;;;5144490;27;20031;-73
2022/12/25 12:04:46;;;;;;;;;;;;;;;;;;5145848;27;20042;-74
2022/12/25 12:07:17;;;;;;;9.32;4.60;;;;;;;;;;5144657;27;19915;-78
2022/12/25 12:10:18;;;;;;;9.20;3.83;;;;;;;;;;5145088;27;20031;-82
2022/12/25 12:13:05;;;;;;;11.23;4.60;;;;;;;;;;5075009;27;20115;-77
2022/12/25 12:15:46;;;;;;;6.70;4.20;;;;;;;;;;5143239;27;20024;-74
2022/12/25 12:18:35;;;;;;;8.55;4.07;;;;;;;;;;5144539;27;20026;-72
2022/12/25 12:21:05;;;;;;;5.93;3.25;;;;;;;;;;5140529;27;20035;-75
2022/12/25 12:23:46;;;;;;;6.70;3.22;;;;;;;;;;5139418;27;20034;-74
2022/12/25 12:26:22;;;;;;;7.45;3.35;;;;;;;;;;5137801;27;20459;-73
2022/12/25 12:28:51;;;;;;;6.57;3.22;;;;;;;;;;5133519;27;20023;-72
2022/12/25 12:31:17;;;;;;;6.53;3.15;;;;;;;;;;5133259;27;20019;-75
2022/12/25 12:33:56;;;;;;;5.38;3.15;;;;;;;;;;5133402;27;20474;-78
2022/12/25 12:36:25;;;;;;;6.82;3.25;;;;;;;;;;5133198;27;20019;-75
2022/12/25 12:38:52;;;;;;;11.27;3.47;;;;;;;;;;5131285;27;20020;-76
2022/12/25 12:41:17;;;;;;;8.93;3.63;;;;;;;;;;5138714;27;20094;-76
2022/12/25 12:43:59;;;;;;;5.63;3.35;;;;;;;;;;5136038;27;20127;-77
2022/12/25 12:46:31;;;;;;;7.35;3.50;;;;;;;;;;5134210;27;20029;-73
2022/12/25 12:49:19;;;;;;;8.05;3.80;;;;;;;;;;5132906;27;20023;-74
2022/12/25 12:51:45;;;;;;;5.45;3.35;;;;;;;;;;5132892;27;20019;-75
2022/12/25 12:54:22;;;;;;;6.63;3.20;;;;;;;;;;5132983;27;20023;-74
2022/12/25 12:57:04;;;;;;;5.80;3.60;;;;;;;;;;5133060;27;20017;-74
2022/12/25 12:59:42;;;;;;;6.63;3.30;;;;;;;;;;5134917;27;20023;-74
2022/12/25 13:02:49;;;;;;;7.75;3.45;;;;;;;;;;5133406;27;20514;-73
2022/12/25 13:05:26;;;;;;;7.60;3.28;;;;;;;;;;5088711;27;20035;-74
2022/12/25 13:08:01;;;;;;;5.70;3.40;;;;;;;;;;5140765;27;20106;-74
2022/12/25 13:10:31;;;;;;;6.97;3.33;;;;;;;;;;5136317;27;20027;-73
2022/12/25 13:13:03;;;;;;;9.93;3.35;;;;;;;;;;5134941;27;20031;-73
2022/12/25 13:15:34;;;;;;;8.70;3.15;;;;;;;;;;5138397;27;20031;-73
2022/12/25 13:18:08;;;;;;;5.72;3.13;;;;;;;;;;5141910;27;20459;-73
2022/12/25 13:20:55;;;;;;;8.63;3.53;;;;;;;;;;5136572;27;20038;-77
2022/12/25 13:23:23;;;;;;;9.05;3.30;;;;;;;;;;5138167;27;20106;-79
2022/12/25 13:25:58;;;;;;;16.85;3.85;;;;;;;;;;5142190;27;20050;-74
2022/12/25 13:28:29;;;;;;;8.27;3.42;;;;;;;;;;5155050;27;20354;-79
2022/12/25 13:31:01;;;;;;;10.13;3.97;;;;;;;;;;5152625;27;20027;-76
2022/12/25 13:33:26;;;;;;;6.10;3.60;;;;;;;;;;5152580;27;20019;-72
2022/12/25 13:35:52;;;;;;;8.20;3.53;;;;;;;;;;5154786;27;20060;-75
2022/12/25 13:38:18;;;;;;;7.65;3.92;;;;;;;;;;5156320;27;20640;-75
2022/12/25 13:42:04;;;;;;;11.60;4.20;;;;;;;;;;5152993;27;20029;-74
2022/12/25 13:43:39;;;;;;;11.05;4.07;;;;;;;;;;5152002;27;20141;-78
2022/12/25 13:46:05;;;;;;;8.70;3.60;;;;;;;;;;5152557;27;20038;-75
2022/12/25 13:48:30;;;;;;;9.50;3.67;;;;;;;;;;5151582;27;20030;-76
2022/12/25 13:50:58;;;;;;;11.05;3.65;;;;;;;;;;5153037;27;20109;-72
2022/12/25 13:53:23;;;;;;;6.40;3.35;;;;;;;;;;5152983;27;20026;-76
2022/12/25 13:55:54;;;;;;;9.50;3.40;;;;;;;;;;5162081;27;20022;-73
2022/12/25 13:58:25;;;;;;;8.32;3.65;;;;;;;;;;5163756;27;20116;-77
2022/12/25 14:00:54;;;;;;;10.95;4.60;;;;;;;;;;5163415;27;20306;-74
2022/12/25 14:03:23;;;;;;;9.55;4.40;;;;;;;;;;5160769;27;20031;-79
2022/12/25 14:06:25;;;;;;;7.53;3.83;;;;;;;;;;5161161;27;20023;-74
2022/12/25 14:08:52;;;;;;;8.68;3.67;;;;;;;;;;5078785;28;20024;-73
2022/12/25 14:11:20;;;;;;;8.07;3.42;;;;;;;;;;5145376;27;20031;-74
2022/12/25 14:13:49;;;;;;;8.13;4.03;;;;;;;;;;5162424;27;20014;-77
2022/12/25 14:16:17;;;;;;;6.50;3.88;;;;;;;;;;5163267;27;20090;-74
2022/12/25 14:18:50;;;;;;;9.32;3.72;;;;;;;;;;5162466;27;20010;-72
2022/12/25 14:21:26;;;;;;;8.07;3.90;;;;;;;;;;5165100;27;20052;-77
2022/12/25 14:23:52;;;;;;;8.75;3.80;;;;;;;;;;5165003;27;20045;-73
2022/12/25 14:26:19;;;;;;;7.70;3.30;;;;;;;;;;5163228;27;20030;-77
2022/12/25 14:28:51;;;;;;;6.57;3.70;;;;;;;;;;5158135;27;20026;-73
2022/12/25 14:31:17;;;;;;;7.30;3.45;;;;;;;;;;5160678;27;20101;-72
2022/12/25 14:33:43;;;;;;;5.40;3.40;;;;;;;;;;5161985;27;20019;-71
2022/12/25 14:36:11;;;;;;;5.50;3.70;;;;;;;;;;5162315;27;20320;-72
2022/12/25 14:38:39;;;;;;;10.35;3.53;;;;;;;;;;5154586;27;20034;-73
2022/12/25 14:41:18;;;;;;;7.65;3.47;;;;;;;;;;5154056;27;20033;-72
2022/12/25 14:43:54;;;;;;;10.65;3.72;;;;;;;;;;5159852;27;20042;-79
2022/12/25 14:46:28;;;;;;;9.43;3.88;;;;;;;;;;5156066;27;20026;-80
2022/12/25 14:49:01;;;;;;;6.95;3.70;;;;;;;;;;5158476;27;20029;-75
2022/12/25 14:51:28;;;;;;;8.07;4.05;;;;;;;;;;5151531;27;20034;-74
2022/12/25 14:53:56;;;;;;;8.52;3.92;;;;;;;;;;5157314;27;20241;-75
2022/12/25 14:56:23;;;;;;;7.80;3.90;;;;;;;;;;5161659;27;20026;-81
2022/12/25 14:58:57;;;;;;;7.57;3.63;;;;;;;;;;5154807;27;20501;-78
2022/12/25 15:01:28;;;;;;;7.13;3.90;;;;;;;;;;5156380;27;20314;-75
2022/12/25 15:04:23;;;;;;;9.05;4.00;;;;;;;;;;5160719;27;20027;-76
2022/12/25 15:06:54;;;;;;;9.82;4.07;;;;;;;;;;5144885;27;20037;-74
2022/12/25 15:09:20;;;;;;;9.90;3.80;;;;;;;;;;5161648;27;20029;-75
2022/12/25 15:11:57;;;;;;;8.32;3.40;;;;;;;;;;5159773;27;20108;-75
2022/12/25 15:14:23;;;;;;;9.90;4.05;;;;;;;;;;5160076;27;20026;-77
2022/12/25 15:16:55;;;;;;;7.53;3.83;;;;;;;;;;5162453;27;20030;-74
2022/12/25 15:19:27;;;;;;;11.20;4.05;;;;;;;;;;5156944;27;20034;-76
2022/12/25 15:21:53;;;;;;;11.48;4.13;;;;;;;;;;5151082;27;20106;-77
2022/12/25 15:24:18;;;;;;;7.60;4.00;;;;;;;;;;5156373;27;20062;-73
2022/12/25 15:26:44;;;;;;;7.90;4.18;;;;;;;;;;5155300;27;20038;-76
2022/12/25 15:29:09;;;;;;;7.82;3.90;;;;;;;;;;5151980;27;20031;-73
2022/12/25 15:31:37;;;;;;;7.95;3.72;;;;;;;;;;5151612;27;20023;-80
2022/12/25 15:34:05;;;;;;;10.45;4.43;;;;;;;;;;5155730;27;20034;-74
2022/12/25 15:36:32;;;;;;;7.38;3.70;;;;;;;;;;5149631;27;20056;-72
2022/12/25 15:38:58;;;;;;;8.25;4.03;;;;;;;;;;5150391;27;20023;-71
2022/12/25 15:44:12;;;;;;;13.15;4.53;;;;;;;;;;5149247;27;20037;-76
2022/12/25 15:46:37;;;;;;;12.90;4.07;;;;;;;;;;5149234;27;20027;-73
2022/12/25 15:49:03;;;;;;;7.60;4.13;;;;;;;;;;5156495;27;20389;-76
2022/12/25 15:51:29;;;;;;;7.18;3.92;;;;;;;;;;5156127;27;20029;-75
2022/12/25 15:53:54;;;;;;;10.95;4.28;;;;;;;;;;5164725;27;20046;-72
2022/12/25 15:56:20;;;;;;;10.35;4.68;;;;;;;;;;5164715;27;20330;-75
2022/12/25 15:58:46;;;;;;;10.82;4.30;;;;;;;;;;5165258;27;20199;-71
2022/12/25 16:01:16;;;;;;;10.02;4.10;;;;;;;;;;5156912;27;20038;-73
2022/12/25 16:03:42;;;;;;;10.48;4.30;;;;;;;;;;5151021;27;20034;-75
2022/12/25 16:06:12;;;;;;;10.68;4.72;;;;;;;;;;5157914;27;20608;-76
2022/12/25 16:08:38;;;;;;;14.07;4.90;;;;;;;;;;5156009;27;20102;-72
2022/12/25 16:11:04;;;;;;;11.63;4.82;;;;;;;;;;5153399;27;20062;-72
2022/12/25 16:13:30;;;;;;;12.63;5.05;;;;;;;;;;5156296;27;20109;-74
2022/12/25 16:15:56;;;;;;;11.98;4.93;;;;;;;;;;5156783;27;20037;-82
2022/12/25 16:18:22;;;;;;;11.65;5.05;;;;;;;;;;5156767;27;20026;-73
2022/12/25 16:20:51;;;;;;;10.63;5.00;;;;;;;;;;5158292;27;20023;-76
2022/12/25 16:23:17;;;;;;;9.30;4.82;;;;;;;;;;5154796;27;20040;-76
2022/12/25 16:25:42;;;;;;;10.43;5.13;;;;;;;;;;5154336;27;20023;-75
2022/12/25 16:28:10;;;;;;;9.82;4.53;;;;;;;;;;5153757;27;20015;-76
2022/12/25 16:30:37;;;;;;;11.77;5.20;;;;;;;;;;5153954;27;20098;-78
2022/12/25 16:33:03;;;;;;;11.70;5.10;;;;;;;;;;5153834;27;20442;-76
2022/12/25 16:35:29;;;;;;;11.55;5.03;;;;;;;;;;5153985;27;20034;-77
2022/12/25 16:37:54;;;;;;;10.65;5.43;;;;;;;;;;5154202;27;20023;-75
2022/12/25 16:40:20;;;;;;;9.93;5.10;;;;;;;;;;5154028;27;20101;-76